createdAt,value
2022-09-15T00:02:28.358Z,16.02
2022-09-15T00:06:30.079Z,12.45
2022-09-15T00:10:31.714Z,16.98
2022-09-15T00:14:33.360Z,13.88
2022-09-15T00:18:36.254Z,14.07
2022-09-15T00:22:38.078Z,17.05
2022-09-15T00:26:39.821Z,13.25
2022-09-15T00:30:47.298Z,16.15
2022-09-15T00:34:50.767Z,15.65
2022-09-15T00:38:53.051Z,20.33
2022-09-15T00:42:54.635Z,11.52
2022-09-15T00:47:17.694Z,19.77
2022-09-15T00:51:24.776Z,13.98
2022-09-15T00:55:33.713Z,12.32
2022-09-15T00:59:39.002Z,15.43
2022-09-15T01:03:40.962Z,18.98
2022-09-15T01:08:06.849Z,13.27
2022-09-15T01:12:08.579Z,15.80
2022-09-15T01:16:35.402Z,17.37
2022-09-15T01:20:46.188Z,14.90
2022-09-15T01:25:06.343Z,16.55
2022-09-15T01:29:26.747Z,13.65
2022-09-15T01:33:37.212Z,18.52
2022-09-15T01:37:44.754Z,14.87
2022-09-15T01:41:50.684Z,18.35
2022-09-15T01:45:53.300Z,17.15
2022-09-15T01:50:15.271Z,11.98
2022-09-15T01:54:19.768Z,14.77
2022-09-15T01:58:21.640Z,18.12
2022-09-15T02:02:30.928Z,20.98
2022-09-15T02:06:39.251Z,19.52
2022-09-15T02:10:46.021Z,15.57
2022-09-15T02:15:05.404Z,32.40
2022-09-15T02:19:31.534Z,26.55
2022-09-15T02:23:39.510Z,18.48
2022-09-15T02:27:46.013Z,18.20
2022-09-15T02:31:50.593Z,18.27
2022-09-15T02:35:52.793Z,18.17
2022-09-15T02:39:59.623Z,19.17
2022-09-15T02:44:01.624Z,18.12
2022-09-15T02:48:04.151Z,15.35
2022-09-15T02:52:06.123Z,14.18
2022-09-15T02:56:07.740Z,17.87
2022-09-15T03:00:13.305Z,18.00
2022-09-15T03:04:14.955Z,15.43
2022-09-15T03:08:16.570Z,14.87
2022-09-15T03:12:18.185Z,15.55
2022-09-15T03:16:20.309Z,16.75
2022-09-15T03:20:25.811Z,19.67
2022-09-15T03:24:27.443Z,15.75
2022-09-15T03:28:29.499Z,12.70
2022-09-15T03:32:31.271Z,14.57
2022-09-15T03:36:33.408Z,15.95
2022-09-15T03:40:37.173Z,15.15
2022-09-15T03:44:38.762Z,20.17
2022-09-15T03:48:40.551Z,14.52
2022-09-15T03:52:42.157Z,14.85
2022-09-15T03:56:47.172Z,13.38
2022-09-15T04:00:48.877Z,12.85
2022-09-15T04:04:50.531Z,13.62
2022-09-15T04:08:52.809Z,14.57
2022-09-15T04:12:54.539Z,15.00
2022-09-15T04:16:56.195Z,16.48
2022-09-15T04:21:02.009Z,21.37
2022-09-15T04:25:04.005Z,15.85
2022-09-15T04:29:13.253Z,15.60
2022-09-15T04:33:14.932Z,16.05
2022-09-15T04:37:16.654Z,21.73
2022-09-15T04:41:19.315Z,23.25
2022-09-15T04:45:21.411Z,17.85
2022-09-15T04:49:23.131Z,19.33
2022-09-15T04:53:25.062Z,18.60
2022-09-15T04:57:26.676Z,20.10
2022-09-15T05:01:31.632Z,20.02
2022-09-15T05:05:34.396Z,18.67
2022-09-15T05:09:36.088Z,16.35
2022-09-15T05:13:39.049Z,18.48
2022-09-15T05:17:40.714Z,20.73
2022-09-15T05:21:56.915Z,19.90
2022-09-15T05:26:00.243Z,15.88
2022-09-15T05:30:31.729Z,15.93
2022-09-15T05:34:23.758Z,14.82
2022-09-15T05:38:27.977Z,17.10
2022-09-15T05:42:31.796Z,18.92
2022-09-15T05:46:33.496Z,23.90
2022-09-15T05:50:35.536Z,24.23
2022-09-15T05:54:38.114Z,20.85
2022-09-15T05:58:41.450Z,21.15
2022-09-15T06:02:43.298Z,18.15
2022-09-15T06:06:45.023Z,17.85
2022-09-15T06:10:47.335Z,17.50
2022-09-15T06:14:50.844Z,13.62
2022-09-15T06:18:53.639Z,16.90
2022-09-15T06:22:57.166Z,19.02
2022-09-15T06:26:58.810Z,18.90
2022-09-15T06:31:00.509Z,17.17
2022-09-15T06:35:06.963Z,22.08
2022-09-15T06:39:08.679Z,18.90
2022-09-15T06:43:10.271Z,20.42
2022-09-15T06:47:15.214Z,21.92
2022-09-15T06:51:18.886Z,22.67
2022-09-15T06:55:20.619Z,21.95
2022-09-15T06:59:24.482Z,23.50
2022-09-15T07:03:26.305Z,27.17
2022-09-15T07:07:28.028Z,32.92
2022-09-15T07:11:30.523Z,33.85
2022-09-15T07:15:32.119Z,35.15
2022-09-15T07:19:33.707Z,32.63
2022-09-15T07:23:35.823Z,33.72
2022-09-15T07:27:37.511Z,35.92
2022-09-15T07:31:39.377Z,30.23
2022-09-15T07:35:42.743Z,29.33
2022-09-15T07:39:44.481Z,35.90
2022-09-15T07:44:00.365Z,39.70
2022-09-15T07:48:02.463Z,33.75
2022-09-15T07:52:04.084Z,29.33
2022-09-15T07:56:06.158Z,36.20
2022-09-15T08:00:08.258Z,30.80
2022-09-15T08:04:09.904Z,28.38
2022-09-15T08:08:11.513Z,29.45
2022-09-15T08:12:13.138Z,22.83
2022-09-15T08:16:18.203Z,29.15
2022-09-15T08:20:21.259Z,24.27
2022-09-15T08:24:23.596Z,29.02
2022-09-15T08:28:26.142Z,29.35
2022-09-15T08:32:27.759Z,26.87
2022-09-15T08:36:30.039Z,26.40
2022-09-15T08:40:38.055Z,26.37
2022-09-15T08:44:57.459Z,29.40
2022-09-15T08:49:06.737Z,24.30
2022-09-15T08:53:25.691Z,23.25
2022-09-15T08:57:27.616Z,26.48
2022-09-15T09:01:56.817Z,19.37
2022-09-15T09:06:05.147Z,29.37
2022-09-15T09:10:25.358Z,20.08
2022-09-15T09:14:54.581Z,18.83
2022-09-15T09:19:03.642Z,14.93
2022-09-15T09:23:12.671Z,19.50
2022-09-15T09:27:18.210Z,13.00
2022-09-15T09:31:22.334Z,10.95
2022-09-15T09:35:42.245Z,14.05
2022-09-15T09:39:43.930Z,10.93
2022-09-15T09:43:48.755Z,12.25
2022-09-15T09:47:50.402Z,11.95
2022-09-15T09:51:57.144Z,13.80
2022-09-15T09:56:22.316Z,13.70
2022-09-15T10:00:33.205Z,10.65
2022-09-15T10:04:34.824Z,9.93
2022-09-15T10:08:36.841Z,9.38
2022-09-15T10:12:41.832Z,9.05
2022-09-15T10:16:43.679Z,5.80
2022-09-15T10:20:51.027Z,12.30
2022-09-15T10:24:53.258Z,7.97
2022-09-15T10:29:11.102Z,6.87
2022-09-15T10:33:23.489Z,11.25
2022-09-15T10:37:36.220Z,8.50
2022-09-15T10:41:48.794Z,5.40
2022-09-15T10:46:13.817Z,6.82
2022-09-15T10:50:29.276Z,6.55
2022-09-15T10:55:12.700Z,5.50
2022-09-15T10:59:20.043Z,3.20
2022-09-15T11:04:03.097Z,6.28
2022-09-15T11:08:33.756Z,5.00
2022-09-15T11:12:38.150Z,5.87
2022-09-15T11:17:06.166Z,8.40
2022-09-15T11:21:33.788Z,6.03
2022-09-15T11:25:43.696Z,5.80
2022-09-15T11:30:01.255Z,5.87
2022-09-15T11:38:38.371Z,6.60
2022-09-15T11:42:52.357Z,7.93
2022-09-15T11:47:07.386Z,6.10
2022-09-15T11:51:12.206Z,6.35
2022-09-15T11:55:17.191Z,5.45
2022-09-15T11:59:28.621Z,3.15
2022-09-15T12:03:40.136Z,4.15
2022-09-15T12:08:06.768Z,4.82
2022-09-15T12:12:18.684Z,7.20
2022-09-15T12:16:21.257Z,5.32
2022-09-15T12:20:39.332Z,6.97
2022-09-15T12:24:58.875Z,5.12
2022-09-15T12:29:21.149Z,7.37
2022-09-15T12:33:59.903Z,3.53
2022-09-15T12:38:01.586Z,9.27
2022-09-15T12:42:26.651Z,6.90
2022-09-15T12:46:28.841Z,5.60
2022-09-15T12:50:35.371Z,8.15
2022-09-15T12:54:39.835Z,7.60
2022-09-15T12:58:46.755Z,9.80
2022-09-15T13:02:51.868Z,10.32
2022-09-15T13:07:15.371Z,5.43
2022-09-15T13:11:40.999Z,9.38
2022-09-15T13:15:46.415Z,11.23
2022-09-15T13:19:51.378Z,7.80
2022-09-15T13:23:54.179Z,5.90
2022-09-15T13:28:00.538Z,6.55
2022-09-15T13:32:44.287Z,9.57
2022-09-15T13:41:45.906Z,11.90
2022-09-15T13:46:02.348Z,6.87
2022-09-15T13:50:48.627Z,7.93
2022-09-15T13:55:14.276Z,4.82
2022-09-15T13:59:34.873Z,5.50
2022-09-15T14:03:41.560Z,7.25
2022-09-15T14:07:44.489Z,5.47
2022-09-15T14:11:52.543Z,5.93
2022-09-15T14:16:20.261Z,3.95
2022-09-15T14:20:23.487Z,4.93
2022-09-15T14:24:30.720Z,7.55
2022-09-15T14:32:38.855Z,5.35
2022-09-15T14:36:41.097Z,5.55
2022-09-15T14:40:42.753Z,10.65
2022-09-15T14:49:14.242Z,4.45
2022-09-15T14:53:20.515Z,4.95
2022-09-15T14:57:26.537Z,6.12
2022-09-15T15:01:39.856Z,4.20
2022-09-15T15:05:58.001Z,6.75
2022-09-15T15:10:18.501Z,6.32
2022-09-15T15:14:20.615Z,4.40
2022-09-15T15:18:38.893Z,2.95
2022-09-15T15:22:42.623Z,7.25
2022-09-15T15:26:47.047Z,5.53
2022-09-15T15:30:48.692Z,4.25
2022-09-15T15:34:53.057Z,3.15
2022-09-15T15:38:57.360Z,3.80
2022-09-15T15:43:12.746Z,4.07
2022-09-15T15:47:14.322Z,4.75
2022-09-15T15:51:15.971Z,3.37
2022-09-15T15:55:23.034Z,4.07
2022-09-15T15:59:24.803Z,4.60
2022-09-15T16:03:27.460Z,3.58
2022-09-15T16:07:33.422Z,3.20
2022-09-15T16:11:35.369Z,4.00
2022-09-15T16:15:36.997Z,5.07
2022-09-15T16:19:38.621Z,4.40
2022-09-15T16:23:40.373Z,5.75
2022-09-15T16:27:42.106Z,6.30
2022-09-15T16:31:43.868Z,7.65
2022-09-15T16:35:51.098Z,5.43
2022-09-15T16:39:54.175Z,4.22
2022-09-15T16:43:56.137Z,7.72
2022-09-15T16:47:58.635Z,4.57
2022-09-15T16:52:00.388Z,6.65
2022-09-15T16:56:02.431Z,5.55
2022-09-15T17:00:04.532Z,7.10
2022-09-15T17:04:16.680Z,5.82
2022-09-15T17:08:20.635Z,2.12
2022-09-15T17:12:23.171Z,2.45
2022-09-15T17:16:24.969Z,3.75
2022-09-15T17:20:27.327Z,3.42
2022-09-15T17:24:29.484Z,4.60
2022-09-15T17:28:33.415Z,5.65
2022-09-15T17:32:35.722Z,4.57
2022-09-15T17:36:37.383Z,6.72
2022-09-15T17:40:39.259Z,6.93
2022-09-15T17:44:40.875Z,7.60
2022-09-15T17:48:42.527Z,6.18
2022-09-15T17:52:45.164Z,6.03
2022-09-15T17:56:47.027Z,3.22
2022-09-15T18:00:49.834Z,8.55
2022-09-15T18:04:51.683Z,4.43
2022-09-15T18:08:53.347Z,3.53
2022-09-15T18:12:55.864Z,2.20
2022-09-15T18:16:57.573Z,2.50
2022-09-15T18:20:59.397Z,6.62
2022-09-15T18:25:01.026Z,3.60
2022-09-15T18:29:03.442Z,4.00
2022-09-15T18:33:05.142Z,5.00
2022-09-15T18:37:06.775Z,10.15
2022-09-15T18:41:10.655Z,4.47
2022-09-15T18:45:15.237Z,6.82
2022-09-15T18:49:16.847Z,4.03
2022-09-15T18:53:18.610Z,4.50
2022-09-15T18:57:20.294Z,4.43
2022-09-15T19:01:22.610Z,4.82
2022-09-15T19:05:25.047Z,5.05
2022-09-15T19:09:26.640Z,5.60
2022-09-15T19:13:28.847Z,5.57
2022-09-15T19:17:30.902Z,3.55
2022-09-15T19:21:32.561Z,5.00
2022-09-15T19:25:34.971Z,4.00
2022-09-15T19:29:37.384Z,3.62
2022-09-15T19:33:39.861Z,4.03
2022-09-15T19:37:42.380Z,7.53
2022-09-15T19:41:44.230Z,3.20
2022-09-15T19:45:46.187Z,6.50
2022-09-15T19:49:47.842Z,5.55
2022-09-15T19:53:52.791Z,3.80
2022-09-15T19:57:54.458Z,2.33
2022-09-15T20:01:56.177Z,6.75
2022-09-15T20:05:58.078Z,6.75
2022-09-15T20:09:59.687Z,5.30
2022-09-15T20:14:02.104Z,9.52
2022-09-15T20:18:04.371Z,6.32
2022-09-15T20:22:06.027Z,3.95
2022-09-15T20:26:09.063Z,7.12
2022-09-15T20:30:11.096Z,4.93
2022-09-15T20:34:12.860Z,3.80
2022-09-15T20:38:14.737Z,6.32
2022-09-15T20:42:16.462Z,6.45
2022-09-15T20:46:21.285Z,5.95
2022-09-15T20:50:22.907Z,4.85
2022-09-15T20:54:24.543Z,3.60
2022-09-15T20:58:26.229Z,3.25
2022-09-15T21:02:27.882Z,5.32
2022-09-15T21:06:29.692Z,7.43
2022-09-15T21:10:31.764Z,13.75
2022-09-15T21:14:33.396Z,4.50
2022-09-15T21:18:38.120Z,6.68
2022-09-15T21:22:39.695Z,4.78
2022-09-15T21:27:01.045Z,5.68
2022-09-15T21:31:12.973Z,5.78
2022-09-15T21:35:15.118Z,6.40
2022-09-15T21:39:16.702Z,5.22
2022-09-15T21:43:18.564Z,6.75
2022-09-15T21:47:20.181Z,6.32
2022-09-15T21:51:24.988Z,5.72
2022-09-15T21:55:26.882Z,6.45
2022-09-15T21:59:28.527Z,6.30
2022-09-15T22:03:30.136Z,4.72
2022-09-15T22:07:31.920Z,5.85
2022-09-15T22:11:34.380Z,3.87
2022-09-15T22:15:36.077Z,8.05
2022-09-15T22:19:37.746Z,3.62
2022-09-15T22:23:40.026Z,2.50
2022-09-15T22:27:42.361Z,5.68
2022-09-15T22:31:44.019Z,5.37
2022-09-15T22:35:47.601Z,4.85
2022-09-15T22:39:58.806Z,4.93
2022-09-15T22:44:01.289Z,4.80
2022-09-15T22:48:02.920Z,4.15
2022-09-15T22:52:04.917Z,7.55
2022-09-15T22:56:21.417Z,3.03
2022-09-15T23:00:23.326Z,4.43
2022-09-15T23:04:25.156Z,3.72
2022-09-15T23:08:26.811Z,5.75
2022-09-15T23:12:32.461Z,6.53
2022-09-15T23:16:34.146Z,2.85
2022-09-15T23:20:36.338Z,5.65
2022-09-15T23:24:37.927Z,6.25
2022-09-15T23:28:40.219Z,7.37
2022-09-15T23:32:42.202Z,4.03
2022-09-15T23:36:43.906Z,6.07
2022-09-15T23:40:46.961Z,5.07
2022-09-15T23:44:48.560Z,5.00
2022-09-15T23:48:50.132Z,3.90
2022-09-15T23:52:51.811Z,3.58
2022-09-15T23:56:53.420Z,7.90
